createdAt,value
2022-10-05T00:00:14.588Z,0.00
2022-10-05T00:01:14.574Z,0.00
2022-10-05T00:02:14.664Z,0.00
2022-10-05T00:03:14.571Z,0.00
2022-10-05T00:04:14.730Z,0.00
2022-10-05T00:05:14.602Z,0.00
2022-10-05T00:06:14.521Z,0.00
2022-10-05T00:07:14.570Z,0.00
2022-10-05T00:08:14.500Z,0.00
2022-10-05T00:09:14.545Z,0.00
2022-10-05T00:10:14.492Z,0.00
2022-10-05T00:11:14.467Z,0.00
2022-10-05T00:12:14.457Z,0.00
2022-10-05T00:13:14.440Z,0.00
2022-10-05T00:14:14.439Z,0.00
2022-10-05T00:15:14.427Z,0.00
2022-10-05T00:16:14.435Z,0.00
2022-10-05T00:17:14.397Z,0.00
2022-10-05T00:18:14.403Z,0.00
2022-10-05T00:19:14.374Z,0.00
2022-10-05T00:20:14.366Z,0.00
2022-10-05T00:21:14.361Z,0.00
2022-10-05T00:22:14.345Z,0.00
2022-10-05T00:23:14.357Z,0.00
2022-10-05T00:24:14.333Z,0.00
2022-10-05T00:25:14.310Z,0.00
2022-10-05T00:26:14.308Z,0.00
2022-10-05T00:27:14.346Z,0.00
2022-10-05T00:28:14.349Z,0.00
2022-10-05T00:29:14.270Z,0.00
2022-10-05T00:30:14.267Z,0.00
2022-10-05T00:31:14.294Z,0.00
2022-10-05T00:32:14.233Z,0.00
2022-10-05T00:33:14.228Z,0.00
2022-10-05T00:34:14.208Z,0.00
2022-10-05T00:35:14.203Z,0.00
2022-10-05T00:36:14.191Z,0.00
2022-10-05T00:37:14.193Z,0.00
2022-10-05T00:38:14.165Z,0.00
2022-10-05T00:39:14.311Z,0.00
2022-10-05T00:40:14.146Z,0.00
2022-10-05T00:41:14.134Z,0.00
2022-10-05T00:42:14.133Z,0.00
2022-10-05T00:43:14.112Z,0.00
2022-10-05T00:44:14.100Z,0.00
2022-10-05T00:45:14.149Z,0.00
2022-10-05T00:46:14.152Z,0.00
2022-10-05T00:47:14.068Z,0.00
2022-10-05T00:48:14.059Z,0.00
2022-10-05T00:49:14.055Z,0.00
2022-10-05T00:50:14.036Z,0.00
2022-10-05T00:51:14.109Z,0.00
2022-10-05T00:52:14.047Z,0.00
2022-10-05T00:53:14.002Z,0.00
2022-10-05T00:54:18.189Z,0.00
2022-10-05T00:55:14.005Z,0.00
2022-10-05T00:56:13.970Z,0.00
2022-10-05T00:57:14.003Z,0.00
2022-10-05T00:58:13.945Z,0.00
2022-10-05T00:59:13.939Z,0.00
2022-10-05T01:00:13.924Z,0.00
2022-10-05T01:01:14.024Z,0.00
2022-10-05T01:02:14.029Z,0.00
2022-10-05T01:03:13.969Z,0.00
2022-10-05T01:04:13.884Z,0.00
2022-10-05T01:05:13.868Z,0.00
2022-10-05T01:06:13.859Z,0.00
2022-10-05T01:07:13.848Z,0.00
2022-10-05T01:08:13.835Z,0.00
2022-10-05T01:09:13.908Z,0.00
2022-10-05T01:10:13.816Z,0.00
2022-10-05T01:11:13.829Z,0.00
2022-10-05T01:12:13.792Z,0.00
2022-10-05T01:13:13.784Z,0.00
2022-10-05T01:14:13.773Z,0.00
2022-10-05T01:15:13.790Z,0.00
2022-10-05T01:16:13.836Z,0.00
2022-10-05T01:17:13.850Z,0.00
2022-10-05T01:18:13.731Z,0.00
2022-10-05T01:19:13.720Z,0.00
2022-10-05T01:20:13.713Z,0.00
2022-10-05T01:21:13.714Z,0.00
2022-10-05T01:22:13.683Z,0.00
2022-10-05T01:23:13.685Z,0.00
2022-10-05T01:24:13.664Z,0.00
2022-10-05T01:25:13.663Z,0.00
2022-10-05T01:26:13.646Z,0.00
2022-10-05T01:27:13.701Z,0.00
2022-10-05T01:28:13.699Z,0.00
2022-10-05T01:29:13.610Z,0.00
2022-10-05T01:30:13.603Z,0.00
2022-10-05T01:31:13.659Z,0.00
2022-10-05T01:32:13.597Z,0.00
2022-10-05T01:33:13.637Z,0.00
2022-10-05T01:34:13.552Z,0.00
2022-10-05T01:35:13.542Z,0.00
2022-10-05T01:36:13.532Z,0.00
2022-10-05T01:37:13.520Z,0.00
2022-10-05T01:38:13.525Z,0.00
2022-10-05T01:39:13.570Z,0.00
2022-10-05T01:40:13.489Z,0.00
2022-10-05T01:41:13.485Z,0.00
2022-10-05T01:42:13.464Z,0.00
2022-10-05T01:43:13.519Z,0.00
2022-10-05T01:44:13.464Z,0.00
2022-10-05T01:45:13.501Z,0.00
2022-10-05T01:46:13.465Z,0.00
2022-10-05T01:47:13.414Z,0.00
2022-10-05T01:48:13.398Z,0.00
2022-10-05T01:49:13.388Z,0.00
2022-10-05T01:50:13.386Z,0.00
2022-10-05T01:51:13.398Z,0.00
2022-10-05T01:52:13.365Z,0.00
2022-10-05T01:53:13.343Z,0.00
2022-10-05T01:54:13.332Z,0.00
2022-10-05T01:55:13.322Z,0.00
2022-10-05T01:56:13.313Z,0.00
2022-10-05T01:57:13.363Z,0.00
2022-10-05T01:58:13.296Z,0.00
2022-10-05T01:59:13.320Z,0.00
2022-10-05T02:00:13.266Z,0.00
2022-10-05T02:01:13.371Z,0.00
2022-10-05T02:02:13.374Z,0.00
2022-10-05T02:03:13.321Z,0.00
2022-10-05T02:04:21.188Z,0.00
2022-10-05T02:05:14.216Z,0.00
2022-10-05T02:06:13.274Z,0.00
2022-10-05T02:07:13.290Z,0.00
2022-10-05T02:08:13.178Z,0.00
2022-10-05T02:09:13.197Z,0.00
2022-10-05T02:10:13.154Z,0.00
2022-10-05T02:11:13.146Z,0.00
2022-10-05T02:12:13.135Z,0.00
2022-10-05T02:13:13.137Z,0.00
2022-10-05T02:14:13.181Z,0.00
2022-10-05T02:15:13.159Z,0.00
2022-10-05T02:16:13.208Z,0.00
2022-10-05T02:17:13.106Z,0.00
2022-10-05T02:18:13.075Z,0.00
2022-10-05T02:19:13.062Z,0.00
2022-10-05T02:20:13.113Z,0.00
2022-10-05T02:21:13.037Z,0.00
2022-10-05T02:22:13.024Z,0.00
2022-10-05T02:23:13.035Z,0.00
2022-10-05T02:24:13.007Z,0.00
2022-10-05T02:25:13.032Z,0.00
2022-10-05T02:26:13.071Z,0.00
2022-10-05T02:27:12.993Z,0.00
2022-10-05T02:28:13.031Z,0.00
2022-10-05T02:29:12.981Z,0.00
2022-10-05T02:30:16.633Z,0.00
2022-10-05T02:31:13.034Z,0.00
2022-10-05T02:32:12.922Z,0.00
2022-10-05T02:33:12.905Z,0.00
2022-10-05T02:34:12.912Z,0.00
2022-10-05T02:35:12.886Z,0.00
2022-10-05T02:36:12.875Z,0.00
2022-10-05T02:37:12.864Z,0.00
2022-10-05T02:38:12.860Z,0.00
2022-10-05T02:39:12.844Z,0.00
2022-10-05T02:40:12.840Z,0.00
2022-10-05T02:41:12.820Z,0.00
2022-10-05T02:42:12.811Z,0.00
2022-10-05T02:43:12.801Z,0.00
2022-10-05T02:44:12.813Z,0.00
2022-10-05T02:45:12.777Z,0.00
2022-10-05T02:46:12.826Z,0.00
2022-10-05T02:47:12.778Z,0.00
2022-10-05T02:48:12.739Z,0.00
2022-10-05T02:49:12.731Z,0.00
2022-10-05T02:50:12.789Z,0.00
2022-10-05T02:51:12.718Z,0.00
2022-10-05T02:52:12.700Z,0.00
2022-10-05T02:53:12.690Z,0.00
2022-10-05T02:54:12.693Z,0.00
2022-10-05T02:55:12.662Z,0.00
2022-10-05T02:56:12.783Z,0.00
2022-10-05T02:57:12.646Z,0.00
2022-10-05T02:58:12.633Z,0.00
2022-10-05T02:59:12.624Z,0.00
2022-10-05T03:00:12.608Z,0.00
2022-10-05T03:01:12.732Z,0.00
2022-10-05T03:02:12.711Z,0.00
2022-10-05T03:03:12.605Z,0.00
2022-10-05T03:04:12.616Z,0.00
2022-10-05T03:05:12.569Z,0.00
2022-10-05T03:06:12.558Z,0.00
2022-10-05T03:07:12.534Z,0.00
2022-10-05T03:08:12.585Z,0.00
2022-10-05T03:09:12.511Z,0.00
2022-10-05T03:10:12.502Z,0.00
2022-10-05T03:11:12.497Z,0.00
2022-10-05T03:12:12.494Z,0.00
2022-10-05T03:13:12.470Z,0.00
2022-10-05T03:14:12.534Z,0.00
2022-10-05T03:15:12.442Z,0.00
2022-10-05T03:16:12.469Z,0.00
2022-10-05T03:17:12.433Z,0.00
2022-10-05T03:18:12.414Z,0.00
2022-10-05T03:19:12.425Z,0.00
2022-10-05T03:20:12.400Z,0.00
2022-10-05T03:21:12.380Z,0.00
2022-10-05T03:22:12.383Z,0.00
2022-10-05T03:23:12.361Z,0.00
2022-10-05T03:24:12.346Z,0.00
2022-10-05T03:25:12.339Z,0.00
2022-10-05T03:26:12.401Z,0.00
2022-10-05T03:27:12.367Z,0.00
2022-10-05T03:28:12.388Z,0.00
2022-10-05T03:29:12.297Z,0.00
2022-10-05T03:30:12.279Z,0.00
2022-10-05T03:31:12.318Z,0.00
2022-10-05T03:32:12.317Z,0.00
2022-10-05T03:33:12.249Z,0.00
2022-10-05T03:34:12.250Z,0.00
2022-10-05T03:35:12.246Z,0.00
2022-10-05T03:36:12.215Z,0.00
2022-10-05T03:37:12.202Z,0.00
2022-10-05T03:38:12.302Z,0.00
2022-10-05T03:39:12.185Z,0.00
2022-10-05T03:40:12.185Z,0.00
2022-10-05T03:41:12.226Z,0.00
2022-10-05T03:42:12.152Z,0.00
2022-10-05T03:43:12.139Z,0.00
2022-10-05T03:44:12.184Z,0.00
2022-10-05T03:45:12.119Z,0.00
2022-10-05T03:46:12.198Z,0.00
2022-10-05T03:47:12.095Z,0.00
2022-10-05T03:48:12.086Z,0.00
2022-10-05T03:49:12.168Z,0.00
2022-10-05T03:50:12.064Z,0.00
2022-10-05T03:51:12.093Z,0.00
2022-10-05T03:52:12.052Z,0.00
2022-10-05T03:53:12.029Z,0.00
2022-10-05T03:54:12.019Z,0.00
2022-10-05T03:55:12.056Z,0.00
2022-10-05T03:56:12.005Z,0.00
2022-10-05T03:57:11.990Z,0.00
2022-10-05T03:58:12.008Z,0.00
2022-10-05T03:59:11.960Z,0.00
2022-10-05T04:00:11.951Z,0.00
2022-10-05T04:01:12.033Z,0.00
2022-10-05T04:02:11.954Z,0.00
2022-10-05T04:03:11.934Z,0.00
2022-10-05T04:04:11.905Z,0.00
2022-10-05T04:05:11.922Z,0.00
2022-10-05T04:06:11.890Z,0.00
2022-10-05T04:07:12.149Z,0.00
2022-10-05T04:08:12.071Z,0.00
2022-10-05T04:09:11.863Z,0.00
2022-10-05T04:10:11.844Z,0.00
2022-10-05T04:11:11.831Z,0.00
2022-10-05T04:12:11.827Z,0.00
2022-10-05T04:13:11.813Z,0.00
2022-10-05T04:14:11.800Z,0.00
2022-10-05T04:15:16.457Z,0.00
2022-10-05T04:16:12.848Z,0.00
2022-10-05T04:17:11.770Z,0.00
2022-10-05T04:18:11.755Z,0.00
2022-10-05T04:19:11.797Z,0.00
2022-10-05T04:20:11.753Z,0.00
2022-10-05T04:21:11.722Z,0.00
2022-10-05T04:22:11.710Z,0.00
2022-10-05T04:23:11.728Z,0.00
2022-10-05T04:24:11.692Z,0.00
2022-10-05T04:25:11.723Z,0.00
2022-10-05T04:26:11.760Z,0.00
2022-10-05T04:27:11.660Z,0.00
2022-10-05T04:28:11.749Z,0.00
2022-10-05T04:29:11.634Z,0.00
2022-10-05T04:30:11.636Z,0.00
2022-10-05T04:31:11.703Z,0.00
2022-10-05T04:32:11.662Z,0.00
2022-10-05T04:33:11.811Z,0.00
2022-10-05T04:34:11.581Z,0.00
2022-10-05T04:35:11.586Z,0.00
2022-10-05T04:36:11.553Z,0.00
2022-10-05T04:37:11.545Z,0.00
2022-10-05T04:38:11.552Z,0.00
2022-10-05T04:39:11.546Z,0.00
2022-10-05T04:40:11.517Z,0.00
2022-10-05T04:41:11.514Z,0.00
2022-10-05T04:42:11.496Z,0.00
2022-10-05T04:43:11.482Z,0.00
2022-10-05T04:44:11.529Z,0.00
2022-10-05T04:45:11.468Z,0.00
2022-10-05T04:46:11.483Z,0.00
2022-10-05T04:47:11.486Z,0.00
2022-10-05T04:48:11.424Z,0.00
2022-10-05T04:49:11.442Z,0.00
2022-10-05T04:50:11.446Z,0.00
2022-10-05T04:51:11.407Z,0.00
2022-10-05T04:52:11.391Z,0.00
2022-10-05T04:53:11.374Z,4.00
2022-10-05T04:54:11.360Z,4.00
2022-10-05T04:55:11.444Z,0.00
2022-10-05T04:56:11.344Z,4.00
2022-10-05T04:57:11.339Z,4.00
2022-10-05T04:58:11.317Z,4.00
2022-10-05T04:59:11.307Z,8.00
2022-10-05T05:00:11.294Z,8.00
2022-10-05T05:01:11.347Z,12.00
2022-10-05T05:02:11.298Z,12.00
2022-10-05T05:03:11.374Z,12.00
2022-10-05T05:04:11.302Z,20.00
2022-10-05T05:05:11.271Z,24.00
2022-10-05T05:06:18.727Z,28.00
2022-10-05T05:07:12.221Z,36.00
2022-10-05T05:08:11.305Z,40.00
2022-10-05T05:09:11.212Z,52.00
2022-10-05T05:10:11.181Z,60.00
2022-10-05T05:11:15.128Z,72.00
2022-10-05T05:12:12.160Z,88.00
2022-10-05T05:13:11.154Z,104.00
2022-10-05T05:14:11.164Z,120.00
2022-10-05T05:15:11.138Z,140.00
2022-10-05T05:16:11.179Z,164.00
2022-10-05T05:17:13.329Z,192.00
2022-10-05T05:18:11.094Z,216.00
2022-10-05T05:19:11.086Z,248.00
2022-10-05T05:20:11.232Z,280.00
2022-10-05T05:21:11.068Z,316.00
2022-10-05T05:22:11.051Z,352.00
2022-10-05T05:23:11.049Z,392.00
2022-10-05T05:24:11.095Z,436.00
2022-10-05T05:25:11.025Z,480.00
2022-10-05T05:26:11.035Z,528.00
2022-10-05T05:27:11.053Z,576.00
2022-10-05T05:28:11.050Z,628.00
2022-10-05T05:29:10.978Z,684.00
2022-10-05T05:30:10.963Z,748.00
2022-10-05T05:31:10.991Z,812.00
2022-10-05T05:32:10.982Z,876.00
2022-10-05T05:33:10.929Z,940.00
2022-10-05T05:34:10.920Z,1004.00
2022-10-05T05:35:10.915Z,1060.00
2022-10-05T05:36:10.901Z,1120.00
2022-10-05T05:37:10.901Z,1176.00
2022-10-05T05:38:10.883Z,1228.00
2022-10-05T05:39:10.868Z,1288.00
2022-10-05T05:40:10.859Z,1340.00
2022-10-05T05:41:10.845Z,1392.00
2022-10-05T05:42:10.831Z,1448.00
2022-10-05T05:43:10.860Z,1500.00
2022-10-05T05:44:10.826Z,1548.00
2022-10-05T05:45:10.802Z,1604.00
2022-10-05T05:46:10.828Z,1656.00
2022-10-05T05:47:11.187Z,1704.00
2022-10-05T05:48:10.767Z,1752.00
2022-10-05T05:49:10.772Z,1808.00
2022-10-05T05:50:10.777Z,1852.00
2022-10-05T05:51:10.737Z,1900.00
2022-10-05T05:52:10.726Z,1948.00
2022-10-05T05:53:10.717Z,1996.00
2022-10-05T05:54:10.704Z,2036.00
2022-10-05T05:55:10.700Z,2084.00
2022-10-05T05:56:10.732Z,2128.00
2022-10-05T05:57:10.671Z,2176.00
2022-10-05T05:58:10.721Z,2220.00
2022-10-05T05:59:10.737Z,2264.00
2022-10-05T06:00:10.657Z,2304.00
2022-10-05T06:01:25.048Z,2348.00
2022-10-05T06:02:11.784Z,2392.00
2022-10-05T06:03:10.775Z,2432.00
2022-10-05T06:04:10.592Z,2472.00
2022-10-05T06:05:10.581Z,2508.00
2022-10-05T06:06:10.581Z,2548.00
2022-10-05T06:07:10.559Z,2584.00
2022-10-05T06:08:10.618Z,2620.00
2022-10-05T06:09:10.540Z,2656.00
2022-10-05T06:10:10.535Z,2692.00
2022-10-05T06:11:10.621Z,2724.00
2022-10-05T06:12:10.507Z,2760.00
2022-10-05T06:13:10.493Z,2788.00
2022-10-05T06:14:10.549Z,2820.00
2022-10-05T06:15:10.527Z,2852.00
2022-10-05T06:16:10.496Z,2880.00
2022-10-05T06:17:10.460Z,2908.00
2022-10-05T06:18:10.436Z,2936.00
2022-10-05T06:19:10.426Z,2964.00
2022-10-05T06:20:10.478Z,2988.00
2022-10-05T06:21:10.404Z,3016.00
2022-10-05T06:22:10.408Z,3040.00
2022-10-05T06:23:10.386Z,3068.00
2022-10-05T06:24:10.371Z,3092.00
2022-10-05T06:25:10.366Z,3120.00
2022-10-05T06:26:10.993Z,3152.00
2022-10-05T06:27:10.341Z,3176.00
2022-10-05T06:28:10.464Z,3204.00
2022-10-05T06:29:10.322Z,3228.00
2022-10-05T06:30:10.305Z,3256.00
2022-10-05T06:31:10.404Z,3288.00
2022-10-05T06:32:10.382Z,3308.00
2022-10-05T06:33:10.274Z,3336.00
2022-10-05T06:34:10.263Z,3360.00
2022-10-05T06:35:10.257Z,3388.00
2022-10-05T06:36:10.240Z,3416.00
2022-10-05T06:37:10.231Z,3444.00
2022-10-05T06:38:10.297Z,3468.00
2022-10-05T06:39:10.218Z,3500.00
2022-10-05T06:40:10.196Z,3540.00
2022-10-05T06:41:10.208Z,3568.00
2022-10-05T06:42:10.175Z,3596.00
2022-10-05T06:43:10.165Z,3628.00
2022-10-05T06:44:10.225Z,3664.00
2022-10-05T06:45:10.145Z,3696.00
2022-10-05T06:46:10.173Z,3724.00
2022-10-05T06:47:10.159Z,6504.00
2022-10-05T06:48:10.181Z,15028.00
2022-10-05T06:49:10.162Z,26496.00
2022-10-05T06:50:10.090Z,38720.00
2022-10-05T06:51:10.078Z,46272.00
2022-10-05T06:52:10.149Z,45248.00
2022-10-05T06:53:10.056Z,47712.00
2022-10-05T06:54:10.048Z,49888.00
2022-10-05T06:55:14.020Z,49408.00
2022-10-05T06:56:10.028Z,48544.00
2022-10-05T06:57:10.070Z,49056.00
2022-10-05T06:58:10.016Z,49760.00
2022-10-05T06:59:09.992Z,50496.00
2022-10-05T07:00:09.980Z,50848.00
2022-10-05T07:01:10.007Z,51840.00
2022-10-05T07:02:09.979Z,52512.00
2022-10-05T07:03:10.019Z,52512.00
2022-10-05T07:04:09.967Z,51360.00
2022-10-05T07:05:09.938Z,53344.00
2022-10-05T07:06:09.914Z,56800.00
2022-10-05T07:07:09.910Z,58208.00
2022-10-05T07:08:09.895Z,57344.00
2022-10-05T07:09:09.958Z,58976.00
2022-10-05T07:10:09.876Z,59968.00
2022-10-05T07:11:09.861Z,57024.00
2022-10-05T07:12:09.860Z,55648.00
2022-10-05T07:13:09.838Z,52928.00
2022-10-05T07:14:09.838Z,52672.00
2022-10-05T07:15:09.872Z,53216.00
2022-10-05T07:16:09.868Z,56544.00
2022-10-05T07:17:09.812Z,61824.00
2022-10-05T07:18:09.827Z,63488.00
2022-10-05T07:19:09.800Z,67872.00
2022-10-05T07:20:09.765Z,65952.00
2022-10-05T07:21:09.755Z,65024.00
2022-10-05T07:22:09.750Z,66592.00
2022-10-05T07:23:09.733Z,67456.00
2022-10-05T07:24:09.732Z,64832.00
2022-10-05T07:25:09.746Z,65632.00
2022-10-05T07:26:09.699Z,67680.00
2022-10-05T07:27:09.893Z,72800.00
2022-10-05T07:28:09.792Z,77728.00
2022-10-05T07:29:09.683Z,74688.00
2022-10-05T07:30:09.658Z,74688.00
2022-10-05T07:31:09.750Z,74784.00
2022-10-05T07:32:09.631Z,74208.00
2022-10-05T07:33:09.631Z,74848.00
2022-10-05T07:34:09.636Z,76992.00
2022-10-05T07:35:09.623Z,78848.00
2022-10-05T07:36:09.590Z,78464.00
2022-10-05T07:37:09.591Z,78080.00
2022-10-05T07:38:09.566Z,74656.00
2022-10-05T07:39:09.572Z,72608.00
2022-10-05T07:40:09.596Z,70848.00
2022-10-05T07:41:09.536Z,69536.00
2022-10-05T07:42:09.521Z,70336.00
2022-10-05T07:43:09.515Z,73120.00
2022-10-05T07:44:12.732Z,78368.00
2022-10-05T07:45:09.511Z,81856.00
2022-10-05T07:46:09.580Z,82176.00
2022-10-05T07:47:09.483Z,82624.00
2022-10-05T07:48:09.462Z,82112.00
2022-10-05T07:49:09.451Z,84352.00
2022-10-05T07:50:09.436Z,86432.00
2022-10-05T07:51:09.461Z,89056.00
2022-10-05T07:52:09.472Z,90880.00
2022-10-05T07:53:09.410Z,88736.00
2022-10-05T07:54:09.397Z,90496.00
2022-10-05T07:55:09.403Z,85984.00
2022-10-05T07:56:09.386Z,82976.00
2022-10-05T07:57:09.360Z,84384.00
2022-10-05T07:58:09.365Z,81344.00
2022-10-05T07:59:09.344Z,76928.00
2022-10-05T08:00:09.334Z,79648.00
2022-10-05T08:01:09.316Z,81440.00
2022-10-05T08:02:09.434Z,82912.00
2022-10-05T08:03:09.348Z,81952.00
2022-10-05T08:04:09.296Z,83168.00
2022-10-05T08:05:09.325Z,85408.00
2022-10-05T08:06:09.261Z,86976.00
2022-10-05T08:07:09.283Z,91904.00
2022-10-05T08:08:09.242Z,96608.00
2022-10-05T08:09:09.274Z,98016.00
2022-10-05T08:10:09.231Z,92704.00
2022-10-05T08:11:09.263Z,85536.00
2022-10-05T08:12:09.310Z,86208.00
2022-10-05T08:13:09.187Z,86432.00
2022-10-05T08:14:09.176Z,88704.00
2022-10-05T08:15:09.173Z,91392.00
2022-10-05T08:16:09.230Z,93568.00
2022-10-05T08:17:09.148Z,94848.00
2022-10-05T08:18:09.138Z,99168.00
2022-10-05T08:19:09.122Z,94368.00
2022-10-05T08:20:09.125Z,91936.00
2022-10-05T08:21:09.109Z,96800.00
2022-10-05T08:22:09.099Z,90016.00
2022-10-05T08:23:09.103Z,85856.00
2022-10-05T08:24:09.069Z,87424.00
2022-10-05T08:25:09.056Z,90240.00
2022-10-05T08:26:09.093Z,84672.00
2022-10-05T08:27:09.029Z,84064.00
2022-10-05T08:28:09.070Z,92448.00
2022-10-05T08:29:13.500Z,91424.00
2022-10-05T08:30:09.014Z,90144.00
2022-10-05T08:31:09.071Z,91712.00
2022-10-05T08:32:08.975Z,89344.00
2022-10-05T08:33:08.965Z,86528.00
2022-10-05T08:34:08.956Z,84928.00
2022-10-05T08:35:08.981Z,87136.00
2022-10-05T08:36:08.933Z,89536.00
2022-10-05T08:37:08.925Z,88032.00
2022-10-05T08:38:09.126Z,92640.00
2022-10-05T08:39:08.923Z,90528.00
2022-10-05T08:40:08.887Z,86592.00
2022-10-05T08:41:08.898Z,85632.00
2022-10-05T08:42:08.868Z,84704.00
2022-10-05T08:43:08.864Z,83552.00
2022-10-05T08:44:08.852Z,85920.00
2022-10-05T08:45:08.835Z,85632.00
2022-10-05T08:46:08.929Z,76480.00
2022-10-05T08:47:08.828Z,75488.00
2022-10-05T08:48:08.802Z,87136.00
2022-10-05T08:49:08.789Z,91488.00
2022-10-05T08:50:08.777Z,88352.00
2022-10-05T08:51:08.766Z,92448.00
2022-10-05T08:52:08.757Z,86016.00
2022-10-05T08:53:08.979Z,85024.00
2022-10-05T08:54:08.735Z,85664.00
2022-10-05T08:55:08.777Z,85952.00
2022-10-05T08:56:08.714Z,87456.00
2022-10-05T08:57:08.698Z,80192.00
2022-10-05T08:58:08.704Z,78432.00
2022-10-05T08:59:08.766Z,75776.00
2022-10-05T09:00:08.669Z,83616.00
2022-10-05T09:01:08.703Z,81888.00
2022-10-05T09:02:08.710Z,80000.00
2022-10-05T09:03:08.636Z,71264.00
2022-10-05T09:04:08.644Z,68320.00
2022-10-05T09:05:08.673Z,71616.00
2022-10-05T09:06:08.602Z,73888.00
2022-10-05T09:07:08.617Z,72160.00
2022-10-05T09:08:08.597Z,80544.00
2022-10-05T09:09:08.581Z,84768.00
2022-10-05T09:10:08.569Z,87904.00
2022-10-05T09:11:08.595Z,83392.00
2022-10-05T09:12:08.545Z,81920.00
2022-10-05T09:13:08.537Z,82240.00
2022-10-05T09:14:08.551Z,81568.00
2022-10-05T09:15:24.960Z,81120.00
2022-10-05T09:16:09.562Z,86432.00
2022-10-05T09:17:08.485Z,87424.00
2022-10-05T09:18:08.745Z,97312.00
2022-10-05T09:19:08.465Z,96064.00
2022-10-05T09:20:08.455Z,100192.00
2022-10-05T09:21:08.442Z,99200.00
2022-10-05T09:22:08.445Z,103968.00
2022-10-05T09:23:08.416Z,102688.00
2022-10-05T09:24:08.414Z,104896.00
2022-10-05T09:25:08.400Z,103648.00
2022-10-05T09:26:08.383Z,117536.00
2022-10-05T09:27:08.407Z,115168.00
2022-10-05T09:28:08.488Z,110080.00
2022-10-05T09:29:08.369Z,107744.00
2022-10-05T09:30:08.345Z,102304.00
2022-10-05T09:31:08.405Z,103456.00
2022-10-05T09:32:09.928Z,100160.00
2022-10-05T09:33:08.310Z,102944.00
2022-10-05T09:34:08.309Z,103648.00
2022-10-05T09:35:08.302Z,103488.00
2022-10-05T09:36:08.336Z,100832.00
2022-10-05T09:37:08.266Z,102208.00
2022-10-05T09:38:08.261Z,102560.00
2022-10-05T09:39:08.244Z,107904.00
2022-10-05T09:40:08.240Z,109088.00
2022-10-05T09:41:08.236Z,106080.00
2022-10-05T09:42:08.277Z,108064.00
2022-10-05T09:43:08.252Z,107232.00
2022-10-05T09:44:08.189Z,106016.00
2022-10-05T09:45:08.197Z,110112.00
2022-10-05T09:46:08.245Z,110560.00
2022-10-05T09:47:08.157Z,103168.00
2022-10-05T09:48:08.201Z,117152.00
2022-10-05T09:49:08.152Z,115712.00
2022-10-05T09:50:08.126Z,114496.00
2022-10-05T09:51:08.125Z,114624.00
2022-10-05T09:52:08.104Z,114496.00
2022-10-05T09:53:08.108Z,108128.00
2022-10-05T09:54:08.122Z,110464.00
2022-10-05T09:55:08.072Z,105504.00
2022-10-05T09:56:08.063Z,105600.00
2022-10-05T09:57:08.052Z,111744.00
2022-10-05T09:58:08.043Z,113088.00
2022-10-05T09:59:08.077Z,114592.00
2022-10-05T10:01:15.995Z,116320.00
2022-10-05T10:02:09.075Z,114048.00
2022-10-05T10:03:08.024Z,107360.00
2022-10-05T10:04:08.029Z,104800.00
2022-10-05T10:05:07.976Z,105728.00
2022-10-05T10:06:08.054Z,106496.00
2022-10-05T10:07:07.948Z,109216.00
2022-10-05T10:08:07.935Z,114496.00
2022-10-05T10:09:07.928Z,108928.00
2022-10-05T10:10:07.927Z,110176.00
2022-10-05T10:11:07.904Z,103904.00
2022-10-05T10:12:07.895Z,101120.00
2022-10-05T10:13:07.888Z,98848.00
2022-10-05T10:14:07.869Z,101728.00
2022-10-05T10:15:07.890Z,104384.00
2022-10-05T10:16:07.922Z,104672.00
2022-10-05T10:17:07.837Z,98400.00
2022-10-05T10:18:07.836Z,101856.00
2022-10-05T10:19:07.829Z,102240.00
2022-10-05T10:20:07.815Z,101664.00
2022-10-05T10:21:07.797Z,102880.00
2022-10-05T10:22:07.793Z,112288.00
2022-10-05T10:23:07.772Z,111936.00
2022-10-05T10:24:07.817Z,109632.00
2022-10-05T10:25:07.764Z,103488.00
2022-10-05T10:26:07.743Z,103424.00
2022-10-05T10:27:07.732Z,104544.00
2022-10-05T10:28:07.777Z,103712.00
2022-10-05T10:29:07.706Z,105344.00
2022-10-05T10:30:07.854Z,101824.00
2022-10-05T10:31:07.786Z,97088.00
2022-10-05T10:32:07.677Z,101600.00
2022-10-05T10:33:07.662Z,100064.00
2022-10-05T10:34:07.651Z,99712.00
2022-10-05T10:35:07.657Z,98496.00
2022-10-05T10:36:07.647Z,103904.00
2022-10-05T10:37:07.624Z,103296.00
2022-10-05T10:38:07.646Z,104224.00
2022-10-05T10:39:07.598Z,96896.00
2022-10-05T10:40:07.715Z,95936.00
2022-10-05T10:41:07.588Z,94784.00
2022-10-05T10:42:07.622Z,90912.00
2022-10-05T10:43:07.559Z,91456.00
2022-10-05T10:44:07.551Z,92800.00
2022-10-05T10:45:07.538Z,94336.00
2022-10-05T10:46:07.662Z,97984.00
2022-10-05T10:47:07.541Z,107488.00
2022-10-05T10:48:07.563Z,107392.00
2022-10-05T10:49:07.496Z,108192.00
2022-10-05T10:50:07.483Z,109056.00
2022-10-05T10:51:07.470Z,117536.00
2022-10-05T10:52:07.479Z,114976.00
2022-10-05T10:53:07.449Z,114400.00
2022-10-05T10:54:07.492Z,119968.00
2022-10-05T10:55:07.427Z,109728.00
2022-10-05T10:56:07.416Z,114016.00
2022-10-05T10:57:07.418Z,112256.00
2022-10-05T10:58:08.653Z,109664.00
2022-10-05T10:59:07.382Z,107456.00
2022-10-05T11:00:07.501Z,108960.00
2022-10-05T11:01:07.362Z,106080.00
2022-10-05T11:02:07.423Z,105472.00
2022-10-05T11:03:07.452Z,105952.00
2022-10-05T11:04:07.344Z,109184.00
2022-10-05T11:05:07.317Z,104832.00
2022-10-05T11:06:07.361Z,102624.00
2022-10-05T11:07:07.301Z,106464.00
2022-10-05T11:08:07.303Z,110368.00
2022-10-05T11:09:07.271Z,100192.00
2022-10-05T11:10:07.268Z,101088.00
2022-10-05T11:11:07.264Z,103520.00
2022-10-05T11:12:07.244Z,102720.00
2022-10-05T11:13:07.244Z,107648.00
2022-10-05T11:14:07.223Z,106752.00
2022-10-05T11:15:07.240Z,110560.00
2022-10-05T11:17:07.192Z,102784.00
2022-10-05T11:18:07.211Z,105056.00
2022-10-05T11:19:07.202Z,101440.00
2022-10-05T11:20:07.194Z,106496.00
2022-10-05T11:21:07.144Z,108000.00
2022-10-05T11:22:07.132Z,109792.00
2022-10-05T11:23:07.121Z,109728.00
2022-10-05T11:24:07.193Z,102208.00
2022-10-05T11:25:07.105Z,99616.00
2022-10-05T11:26:07.307Z,99680.00
2022-10-05T11:27:07.084Z,100864.00
2022-10-05T11:28:07.109Z,94656.00
2022-10-05T11:29:07.104Z,100128.00
2022-10-05T11:30:07.121Z,102144.00
2022-10-05T11:31:07.084Z,101856.00
2022-10-05T11:32:07.025Z,98592.00
2022-10-05T11:33:07.014Z,96736.00
2022-10-05T11:34:07.015Z,97184.00
2022-10-05T11:35:07.031Z,97824.00
2022-10-05T11:36:07.064Z,90944.00
2022-10-05T11:37:06.967Z,94464.00
2022-10-05T11:38:06.957Z,94688.00
2022-10-05T11:39:06.948Z,101536.00
2022-10-05T11:40:06.940Z,98080.00
2022-10-05T11:41:06.938Z,99904.00
2022-10-05T11:42:06.973Z,95104.00
2022-10-05T11:43:06.904Z,92224.00
2022-10-05T11:44:07.191Z,88928.00
2022-10-05T11:45:06.885Z,88960.00
2022-10-05T11:46:06.935Z,86656.00
2022-10-05T11:47:06.876Z,105952.00
2022-10-05T11:48:06.906Z,106720.00
2022-10-05T11:49:06.842Z,105184.00
2022-10-05T11:50:06.827Z,100992.00
2022-10-05T11:51:06.946Z,97280.00
2022-10-05T11:52:06.821Z,102048.00
2022-10-05T11:53:06.794Z,104960.00
2022-10-05T11:54:06.796Z,103520.00
2022-10-05T11:55:11.673Z,97760.00
2022-10-05T11:56:07.775Z,94624.00
2022-10-05T11:57:06.754Z,93184.00
2022-10-05T11:58:06.755Z,95616.00
2022-10-05T11:59:06.734Z,104224.00
2022-10-05T12:00:06.721Z,107072.00
2022-10-05T12:01:06.755Z,109568.00
2022-10-05T12:02:06.700Z,100320.00
2022-10-05T12:03:06.854Z,93504.00
2022-10-05T12:04:06.784Z,90304.00
2022-10-05T12:05:06.673Z,95840.00
2022-10-05T12:06:06.729Z,98720.00
2022-10-05T12:07:06.694Z,94048.00
2022-10-05T12:08:06.633Z,94816.00
2022-10-05T12:09:06.625Z,100288.00
2022-10-05T12:10:06.607Z,100928.00
2022-10-05T12:11:06.605Z,103680.00
2022-10-05T12:12:06.629Z,101792.00
2022-10-05T12:13:06.579Z,103680.00
2022-10-05T12:14:06.570Z,98880.00
2022-10-05T12:15:06.560Z,91392.00
2022-10-05T12:16:06.684Z,95104.00
2022-10-05T12:17:06.535Z,93376.00
2022-10-05T12:18:06.586Z,94080.00
2022-10-05T12:19:06.514Z,92896.00
2022-10-05T12:20:06.513Z,90784.00
2022-10-05T12:21:06.496Z,91968.00
2022-10-05T12:22:06.491Z,93824.00